sensor_id;sensor_type;location;lat;lon;timestamp;pressure;altitude;pressure_sealevel;temperature;humidity
61908;BME280;47864;52.526;19.672;2023-08-31T00:00:22;153155.25;;;16.59;100.00
61908;BME280;47864;52.526;19.672;2023-08-31T00:02:24;153143.84;;;16.54;100.00
61908;BME280;47864;52.526;19.672;2023-08-31T00:04:25;153122.25;;;16.46;100.00
61908;BME280;47864;52.526;19.672;2023-08-31T00:06:27;153142.56;;;16.54;100.00
61908;BME280;47864;52.526;19.672;2023-08-31T00:08:30;153140.03;;;16.53;100.00
61908;BME280;47864;52.526;19.672;2023-08-31T00:10:31;153137.47;;;16.52;100.00
61908;BME280;47864;52.526;19.672;2023-08-31T00:12:33;153087.94;;;16.32;100.00
61908;BME280;47864;52.526;19.672;2023-08-31T00:14:34;153142.56;;;16.54;100.00
61908;BME280;47864;52.526;19.672;2023-08-31T00:16:36;153137.47;;;16.52;100.00
61908;BME280;47864;52.526;19.672;2023-08-31T00:18:38;153132.38;;;16.50;100.00
61908;BME280;47864;52.526;19.672;2023-08-31T00:20:39;153151.44;;;16.57;100.00
61908;BME280;47864;52.526;19.672;2023-08-31T00:22:41;153169.25;;;16.64;100.00
61908;BME280;47864;52.526;19.672;2023-08-31T00:24:42;153104.50;;;16.39;100.00
61908;BME280;47864;52.526;19.672;2023-08-31T00:26:44;153119.72;;;16.45;100.00
61908;BME280;47864;52.526;19.672;2023-08-31T00:28:45;153105.72;;;16.39;100.00
61908;BME280;47864;52.526;19.672;2023-08-31T00:30:47;153119.72;;;16.45;100.00
61908;BME280;47864;52.526;19.672;2023-08-31T00:32:50;153126.03;;;16.47;100.00
61908;BME280;47864;52.526;19.672;2023-08-31T00:34:51;153114.63;;;16.43;100.00
61908;BME280;47864;52.526;19.672;2023-08-31T00:36:53;153155.25;;;16.59;100.00
61908;BME280;47864;52.526;19.672;2023-08-31T00:38:54;153173.06;;;16.66;100.00
61908;BME280;47864;52.526;19.672;2023-08-31T00:40:56;153195.91;;;16.75;100.00
61908;BME280;47864;52.526;19.672;2023-08-31T00:42:59;153208.59;;;16.80;100.00
61908;BME280;47864;52.526;19.672;2023-08-31T00:45:00;153156.50;;;16.59;100.00
61908;BME280;47864;52.526;19.672;2023-08-31T00:47:01;153137.47;;;16.52;100.00
61908;BME280;47864;52.526;19.672;2023-08-31T00:49:03;153109.53;;;16.41;100.00
61908;BME280;47864;52.526;19.672;2023-08-31T00:51:06;153134.94;;;16.51;100.00
61908;BME280;47864;52.526;19.672;2023-08-31T00:53:08;153136.19;;;16.51;100.00
61908;BME280;47864;52.526;19.672;2023-08-31T00:55:10;153099.41;;;16.36;100.00
61908;BME280;47864;52.526;19.672;2023-08-31T00:57:12;153136.19;;;16.51;100.00
61908;BME280;47864;52.526;19.672;2023-08-31T00:59:13;153129.84;;;16.49;100.00
61908;BME280;47864;52.526;19.672;2023-08-31T01:01:21;153147.59;;;16.56;100.00
61908;BME280;47864;52.526;19.672;2023-08-31T01:06:05;153054.97;;;16.19;100.00
61908;BME280;47864;52.526;19.672;2023-08-31T01:08:18;153094.31;;;16.34;100.00
61908;BME280;47864;52.526;19.672;2023-08-31T01:10:43;153062.59;;;16.22;100.00
61908;BME280;47864;52.526;19.672;2023-08-31T01:12:53;153048.59;;;16.16;100.00
61908;BME280;47864;52.526;19.672;2023-08-31T01:15:10;153034.66;;;16.11;100.00
61908;BME280;47864;52.526;19.672;2023-08-31T01:17:14;153053.69;;;16.18;100.00
61908;BME280;47864;52.526;19.672;2023-08-31T01:19:48;153033.41;;;16.10;100.00
61908;BME280;47864;52.526;19.672;2023-08-31T01:21:53;153005.47;;;15.99;100.00
61908;BME280;47864;52.526;19.672;2023-08-31T01:23:56;152985.16;;;15.91;100.00
61908;BME280;47864;52.526;19.672;2023-08-31T01:25:58;153006.72;;;15.99;100.00
61908;BME280;47864;52.526;19.672;2023-08-31T01:28:00;152991.53;;;15.93;100.00
61908;BME280;47864;52.526;19.672;2023-08-31T01:30:03;152975.03;;;15.87;100.00
61908;BME280;47864;52.526;19.672;2023-08-31T01:32:06;152963.59;;;15.82;100.00
61908;BME280;47864;52.526;19.672;2023-08-31T01:34:08;152949.66;;;15.77;100.00
61908;BME280;47864;52.526;19.672;2023-08-31T01:36:28;152945.84;;;15.75;100.00
61908;BME280;47864;52.526;19.672;2023-08-31T01:38:32;152968.66;;;15.84;100.00
61908;BME280;47864;52.526;19.672;2023-08-31T01:42:43;152986.44;;;15.91;100.00
61908;BME280;47864;52.526;19.672;2023-08-31T01:44:46;152952.19;;;15.78;100.00
61908;BME280;47864;52.526;19.672;2023-08-31T01:46:52;152935.72;;;15.71;100.00
61908;BME280;47864;52.526;19.672;2023-08-31T01:48:54;152938.25;;;15.72;100.00
61908;BME280;47864;52.526;19.672;2023-08-31T01:50:56;152915.41;;;15.63;100.00
61908;BME280;47864;52.526;19.672;2023-08-31T01:52:57;152948.38;;;15.76;100.00
61908;BME280;47864;52.526;19.672;2023-08-31T01:54:59;152971.22;;;15.85;100.00
61908;BME280;47864;52.526;19.672;2023-08-31T01:57:01;152939.53;;;15.73;100.00
61908;BME280;47864;52.526;19.672;2023-08-31T01:59:02;152944.56;;;15.75;100.00
61908;BME280;47864;52.526;19.672;2023-08-31T02:01:04;152911.59;;;15.62;100.00
61908;BME280;47864;52.526;19.672;2023-08-31T02:03:05;152929.34;;;15.69;100.00
61908;BME280;47864;52.526;19.672;2023-08-31T02:05:08;152889.97;;;15.53;100.00
61908;BME280;47864;52.526;19.672;2023-08-31T02:07:09;152896.38;;;15.55;100.00
61908;BME280;47864;52.526;19.672;2023-08-31T02:09:12;152930.63;;;15.69;100.00
61908;BME280;47864;52.526;19.672;2023-08-31T02:11:14;152945.84;;;15.75;100.00
61908;BME280;47864;52.526;19.672;2023-08-31T02:13:16;152930.63;;;15.69;100.00
61908;BME280;47864;52.526;19.672;2023-08-31T02:15:17;152912.88;;;15.62;100.00
61908;BME280;47864;52.526;19.672;2023-08-31T02:17:19;152883.63;;;15.50;100.00
61908;BME280;47864;52.526;19.672;2023-08-31T02:19:20;152886.16;;;15.51;100.00
61908;BME280;47864;52.526;19.672;2023-08-31T02:21:22;152876.03;;;15.47;100.00
61908;BME280;47864;52.526;19.672;2023-08-31T02:23:23;152883.63;;;15.50;100.00
61908;BME280;47864;52.526;19.672;2023-08-31T02:25:25;152889.97;;;15.53;100.00
61908;BME280;47864;52.526;19.672;2023-08-31T02:27:27;152853.19;;;15.38;100.00
61908;BME280;47864;52.526;19.672;2023-08-31T02:29:28;152865.88;;;15.43;100.00
61908;BME280;47864;52.526;19.672;2023-08-31T02:31:30;152878.53;;;15.48;100.00
61908;BME280;47864;52.526;19.672;2023-08-31T02:33:32;152902.69;;;15.58;100.00
61908;BME280;47864;52.526;19.672;2023-08-31T02:35:33;152921.72;;;15.66;100.00
61908;BME280;47864;52.526;19.672;2023-08-31T02:37:35;152933.16;;;15.70;100.00
61908;BME280;47864;52.526;19.672;2023-08-31T02:39:36;152952.19;;;15.78;100.00
61908;BME280;47864;52.526;19.672;2023-08-31T02:41:38;152945.84;;;15.75;100.00
61908;BME280;47864;52.526;19.672;2023-08-31T02:43:39;152990.25;;;15.93;100.00
61908;BME280;47864;52.526;19.672;2023-08-31T02:45:41;153020.72;;;16.05;100.00
61908;BME280;47864;52.526;19.672;2023-08-31T02:47:42;153039.75;;;16.13;100.00
61908;BME280;47864;52.526;19.672;2023-08-31T02:49:44;153063.88;;;16.22;100.00
61908;BME280;47864;52.526;19.672;2023-08-31T02:51:46;153058.78;;;16.20;100.00
61908;BME280;47864;52.526;19.672;2023-08-31T02:53:47;153076.56;;;16.27;100.00
61908;BME280;47864;52.526;19.672;2023-08-31T02:55:50;153006.72;;;15.99;100.00
61908;BME280;47864;52.526;19.672;2023-08-31T02:57:51;152978.84;;;15.88;100.00
61908;BME280;47864;52.526;19.672;2023-08-31T02:59:53;153038.47;;;16.12;100.00
61908;BME280;47864;52.526;19.672;2023-08-31T03:01:54;152995.34;;;15.95;100.00
61908;BME280;47864;52.526;19.672;2023-08-31T03:03:56;153032.13;;;16.10;100.00
61908;BME280;47864;52.526;19.672;2023-08-31T03:05:58;152995.34;;;15.95;100.00
61908;BME280;47864;52.526;19.672;2023-08-31T03:07:59;152959.81;;;15.81;100.00
61908;BME280;47864;52.526;19.672;2023-08-31T03:10:01;152954.72;;;15.79;100.00
61908;BME280;47864;52.526;19.672;2023-08-31T03:12:02;152957.28;;;15.80;100.00
61908;BME280;47864;52.526;19.672;2023-08-31T03:14:04;152992.78;;;15.94;100.00
61908;BME280;47864;52.526;19.672;2023-08-31T03:16:05;152995.34;;;15.95;100.00
61908;BME280;47864;52.526;19.672;2023-08-31T03:18:07;152999.16;;;15.96;100.00
61908;BME280;47864;52.526;19.672;2023-08-31T03:20:09;152958.53;;;15.80;100.00
61908;BME280;47864;52.526;19.672;2023-08-31T03:22:11;152925.53;;;15.67;100.00
61908;BME280;47864;52.526;19.672;2023-08-31T03:24:12;152940.75;;;15.73;100.00
61908;BME280;47864;52.526;19.672;2023-08-31T03:26:14;152938.25;;;15.72;100.00
61908;BME280;47864;52.526;19.672;2023-08-31T03:28:15;152935.72;;;15.71;100.00
61908;BME280;47864;52.526;19.672;2023-08-31T03:30:17;152920.44;;;15.65;100.00
61908;BME280;47864;52.526;19.672;2023-08-31T03:32:18;152972.50;;;15.86;100.00
61908;BME280;47864;52.526;19.672;2023-08-31T03:34:20;153010.53;;;16.01;100.00
61908;BME280;47864;52.526;19.672;2023-08-31T03:36:21;153034.66;;;16.11;100.00
61908;BME280;47864;52.526;19.672;2023-08-31T03:38:23;153048.59;;;16.16;100.00
61908;BME280;47864;52.526;19.672;2023-08-31T03:40:25;153032.13;;;16.10;100.00
61908;BME280;47864;52.526;19.672;2023-08-31T03:42:26;153037.22;;;16.12;100.00
61908;BME280;47864;52.526;19.672;2023-08-31T03:44:28;152995.34;;;15.95;100.00
61908;BME280;47864;52.526;19.672;2023-08-31T03:46:29;152980.13;;;15.89;100.00
61908;BME280;47864;52.526;19.672;2023-08-31T03:48:31;152953.47;;;15.78;100.00
61908;BME280;47864;52.526;19.672;2023-08-31T03:50:32;152915.41;;;15.63;100.00
61908;BME280;47864;52.526;19.672;2023-08-31T03:52:34;152915.41;;;15.63;100.00
61908;BME280;47864;52.526;19.672;2023-08-31T03:54:35;152897.66;;;15.56;100.00
61908;BME280;47864;52.526;19.672;2023-08-31T03:56:37;152864.59;;;15.43;100.00
61908;BME280;47864;52.526;19.672;2023-08-31T03:58:38;152915.41;;;15.63;100.00
61908;BME280;47864;52.526;19.672;2023-08-31T04:00:40;152888.69;;;15.52;100.00
61908;BME280;47864;52.526;19.672;2023-08-31T04:02:43;152926.81;;;15.68;100.00
61908;BME280;47864;52.526;19.672;2023-08-31T04:04:44;152948.38;;;15.76;100.00
61908;BME280;47864;52.526;19.672;2023-08-31T04:06:46;152954.72;;;15.79;100.00
61908;BME280;47864;52.526;19.672;2023-08-31T04:08:47;152966.13;;;15.83;100.00
61908;BME280;47864;52.526;19.672;2023-08-31T04:10:49;152969.94;;;15.85;100.00
61908;BME280;47864;52.526;19.672;2023-08-31T04:12:51;152954.72;;;15.79;100.00
61908;BME280;47864;52.526;19.672;2023-08-31T04:14:52;152954.72;;;15.79;100.00
61908;BME280;47864;52.526;19.672;2023-08-31T04:16:55;152942.00;;;15.74;100.00
61908;BME280;47864;52.526;19.672;2023-08-31T04:18:57;152947.09;;;15.76;100.00
61908;BME280;47864;52.526;19.672;2023-08-31T04:20:59;152963.59;;;15.82;100.00
61908;BME280;47864;52.526;19.672;2023-08-31T04:23:00;152969.94;;;15.85;100.00
61908;BME280;47864;52.526;19.672;2023-08-31T04:25:03;152945.84;;;15.75;100.00
61908;BME280;47864;52.526;19.672;2023-08-31T04:27:04;152952.19;;;15.78;100.00
61908;BME280;47864;52.526;19.672;2023-08-31T04:29:06;152957.28;;;15.80;100.00
61908;BME280;47864;52.526;19.672;2023-08-31T04:31:08;152957.28;;;15.80;100.00
61908;BME280;47864;52.526;19.672;2023-08-31T04:33:09;152938.25;;;15.72;100.00
61908;BME280;47864;52.526;19.672;2023-08-31T04:35:11;152963.59;;;15.82;100.00
61908;BME280;47864;52.526;19.672;2023-08-31T04:37:13;152944.56;;;15.75;100.00
61908;BME280;47864;52.526;19.672;2023-08-31T04:39:15;152945.84;;;15.75;100.00
61908;BME280;47864;52.526;19.672;2023-08-31T04:41:17;152973.75;;;15.86;100.00
61908;BME280;47864;52.526;19.672;2023-08-31T04:43:18;152962.31;;;15.82;100.00
61908;BME280;47864;52.526;19.672;2023-08-31T04:45:20;152978.84;;;15.88;100.00
61908;BME280;47864;52.526;19.672;2023-08-31T04:47:22;153001.69;;;15.97;100.00
61908;BME280;47864;52.526;19.672;2023-08-31T04:49:23;153002.91;;;15.98;100.00
61908;BME280;47864;52.526;19.672;2023-08-31T04:51:32;153005.47;;;15.99;100.00
61908;BME280;47864;52.526;19.672;2023-08-31T04:53:34;152995.34;;;15.95;100.00
61908;BME280;47864;52.526;19.672;2023-08-31T04:55:35;153005.47;;;15.99;100.00
61908;BME280;47864;52.526;19.672;2023-08-31T04:57:37;153044.78;;;16.15;100.00
61908;BME280;47864;52.526;19.672;2023-08-31T04:59:38;153043.53;;;16.14;100.00
61908;BME280;47864;52.526;19.672;2023-08-31T05:01:40;153081.63;;;16.29;100.00
61908;BME280;47864;52.526;19.672;2023-08-31T05:03:42;153110.81;;;16.41;100.00
61908;BME280;47864;52.526;19.672;2023-08-31T05:05:43;153126.03;;;16.47;100.00
61908;BME280;47864;52.526;19.672;2023-08-31T05:07:45;153120.97;;;16.45;100.00
61908;BME280;47864;52.526;19.672;2023-08-31T05:09:46;153151.44;;;16.57;100.00
61908;BME280;47864;52.526;19.672;2023-08-31T05:11:48;153161.66;;;16.61;100.00
61908;BME280;47864;52.526;19.672;2023-08-31T05:13:50;153183.25;;;16.70;100.00
61908;BME280;47864;52.526;19.672;2023-08-31T05:15:51;153475.41;;;17.86;100.00
61908;BME280;47864;52.526;19.672;2023-08-31T05:17:53;153732.19;;;18.89;100.00
61908;BME280;47864;52.526;19.672;2023-08-31T05:19:55;153621.50;;;18.45;100.00
61908;BME280;47864;52.526;19.672;2023-08-31T05:21:57;153498.25;;;17.96;100.00
61908;BME280;47864;52.526;19.672;2023-08-31T05:23:58;153434.75;;;17.70;100.00
61908;BME280;47864;52.526;19.672;2023-08-31T05:26:00;153349.59;;;17.36;100.00
61908;BME280;47864;52.526;19.672;2023-08-31T05:28:01;153307.69;;;17.20;100.00
61908;BME280;47864;52.526;19.672;2023-08-31T05:30:03;153335.59;;;17.31;100.00
61908;BME280;47864;52.526;19.672;2023-08-31T05:32:05;153336.84;;;17.31;100.00
61908;BME280;47864;52.526;19.672;2023-08-31T05:34:09;153325.44;;;17.27;100.00
61908;BME280;47864;52.526;19.672;2023-08-31T05:36:11;153395.28;;;17.55;100.00
61908;BME280;47864;52.526;19.672;2023-08-31T05:38:13;153400.38;;;17.57;100.00
61908;BME280;47864;52.526;19.672;2023-08-31T05:40:14;153378.78;;;17.48;100.00
61908;BME280;47864;52.526;19.672;2023-08-31T05:42:16;153447.44;;;17.75;100.00
61908;BME280;47864;52.526;19.672;2023-08-31T05:44:17;153465.22;;;17.82;100.00
61908;BME280;47864;52.526;19.672;2023-08-31T05:46:19;153575.78;;;18.27;100.00
61908;BME280;47864;52.526;19.672;2023-08-31T05:48:21;153710.56;;;18.80;100.00
61908;BME280;47864;52.526;19.672;2023-08-31T05:50:22;153755.06;;;18.98;100.00
61908;BME280;47864;52.526;19.672;2023-08-31T05:52:24;153840.28;;;19.32;100.00
61908;BME280;47864;52.526;19.672;2023-08-31T05:54:25;153986.63;;;19.90;100.00
61908;BME280;47864;52.526;19.672;2023-08-31T05:56:27;154045.16;;;20.13;100.00
61908;BME280;47864;52.526;19.672;2023-08-31T05:58:32;153958.63;;;19.79;100.00
61908;BME280;47864;52.526;19.672;2023-08-31T06:00:34;153845.38;;;19.34;100.00
61908;BME280;47864;52.526;19.672;2023-08-31T06:02:36;153788.13;;;19.11;100.00
61908;BME280;47864;52.526;19.672;2023-08-31T06:04:37;153883.56;;;19.49;100.00
61908;BME280;47864;52.526;19.672;2023-08-31T06:06:39;153752.53;;;18.97;100.00
61908;BME280;47864;52.526;19.672;2023-08-31T06:08:40;153883.56;;;19.49;100.00
61908;BME280;47864;52.526;19.672;2023-08-31T06:10:42;153985.34;;;19.90;100.00
61908;BME280;47864;52.526;19.672;2023-08-31T06:12:44;153920.47;;;19.64;100.00
61908;BME280;47864;52.526;19.672;2023-08-31T06:14:45;153954.78;;;19.77;100.00
61908;BME280;47864;52.526;19.672;2023-08-31T06:16:47;153872.06;;;19.45;100.00
61908;BME280;47864;52.526;19.672;2023-08-31T06:18:48;153805.97;;;19.18;100.00
61908;BME280;47864;52.526;19.672;2023-08-31T06:20:50;153877.16;;;19.47;100.00
61908;BME280;47864;52.526;19.672;2023-08-31T06:22:51;154032.44;;;20.08;100.00
61908;BME280;47864;52.526;19.672;2023-08-31T06:24:53;154098.63;;;20.35;100.00
61908;BME280;47864;52.526;19.672;2023-08-31T06:26:54;154098.63;;;20.35;100.00
61908;BME280;47864;52.526;19.672;2023-08-31T06:28:56;154023.50;;;20.05;100.00
61908;BME280;47864;52.526;19.672;2023-08-31T06:30:57;154022.22;;;20.04;100.00
61908;BME280;47864;52.526;19.672;2023-08-31T06:32:59;153929.38;;;19.67;100.00
61908;BME280;47864;52.526;19.672;2023-08-31T06:35:00;153877.16;;;19.47;100.00
61908;BME280;47864;52.526;19.672;2023-08-31T06:37:02;153874.59;;;19.46;100.00
61908;BME280;47864;52.526;19.672;2023-08-31T06:39:06;153856.81;;;19.38;100.00
61908;BME280;47864;52.526;19.672;2023-08-31T06:41:08;153903.94;;;19.57;100.00
61908;BME280;47864;52.526;19.672;2023-08-31T06:43:10;153998.06;;;19.95;100.00
61908;BME280;47864;52.526;19.672;2023-08-31T06:45:12;154083.31;;;20.29;100.00
61908;BME280;47864;52.526;19.672;2023-08-31T06:47:13;154125.38;;;20.45;100.00
61908;BME280;47864;52.526;19.672;2023-08-31T06:49:15;154175.03;;;20.65;100.00
61908;BME280;47864;52.526;19.672;2023-08-31T06:51:17;154248.84;;;20.95;100.00
61908;BME280;47864;52.526;19.672;2023-08-31T06:53:18;154097.34;;;20.34;100.00
61908;BME280;47864;52.526;19.672;2023-08-31T06:55:20;154206.81;;;20.78;100.00
61908;BME280;47864;52.526;19.672;2023-08-31T06:57:26;154210.66;;;20.79;100.00
61908;BME280;47864;52.526;19.672;2023-08-31T06:59:27;153961.16;;;19.80;100.00
61908;BME280;47864;52.526;19.672;2023-08-31T07:01:29;153849.16;;;19.35;100.00
61908;BME280;47864;52.526;19.672;2023-08-31T07:03:31;153854.25;;;19.37;100.00
61908;BME280;47864;52.526;19.672;2023-08-31T07:05:34;153948.47;;;19.75;100.00
61908;BME280;47864;52.526;19.672;2023-08-31T07:07:36;154045.16;;;20.13;100.00
61908;BME280;47864;52.526;19.672;2023-08-31T07:09:37;154158.47;;;20.59;100.00
61908;BME280;47864;52.526;19.672;2023-08-31T07:11:39;154036.22;;;20.10;100.00
61908;BME280;47864;52.526;19.672;2023-08-31T07:13:41;154027.34;;;20.06;100.00
61908;BME280;47864;52.526;19.672;2023-08-31T07:15:43;154116.47;;;20.42;100.00
61908;BME280;47864;52.526;19.672;2023-08-31T07:17:44;154096.13;;;20.34;100.00
61908;BME280;47864;52.526;19.672;2023-08-31T07:19:46;153959.88;;;19.80;100.00
61908;BME280;47864;52.526;19.672;2023-08-31T07:21:48;154050.25;;;20.16;100.00
61908;BME280;47864;52.526;19.672;2023-08-31T07:23:49;154082.03;;;20.28;100.00
61908;BME280;47864;52.526;19.672;2023-08-31T07:25:50;154144.44;;;20.53;100.00
61908;BME280;47864;52.526;19.672;2023-08-31T07:27:52;154182.63;;;20.68;100.00
61908;BME280;47864;52.526;19.672;2023-08-31T07:29:54;154032.44;;;20.08;100.00
61908;BME280;47864;52.526;19.672;2023-08-31T07:31:56;154047.69;;;20.14;100.00
61908;BME280;47864;52.526;19.672;2023-08-31T07:33:58;154127.91;;;20.46;100.00
61908;BME280;47864;52.526;19.672;2023-08-31T07:36:00;153963.72;;;19.81;100.00
61908;BME280;47864;52.526;19.672;2023-08-31T07:38:01;153945.91;;;19.74;100.00
61908;BME280;47864;52.526;19.672;2023-08-31T07:40:04;154055.34;;;20.18;100.00
61908;BME280;47864;52.526;19.672;2023-08-31T07:42:06;153952.25;;;19.76;100.00
61908;BME280;47864;52.526;19.672;2023-08-31T07:44:07;153939.53;;;19.71;100.00
61908;BME280;47864;52.526;19.672;2023-08-31T07:46:09;153939.53;;;19.71;100.00
61908;BME280;47864;52.526;19.672;2023-08-31T07:48:11;153889.94;;;19.52;100.00
61908;BME280;47864;52.526;19.672;2023-08-31T07:50:12;153926.84;;;19.66;100.00
61908;BME280;47864;52.526;19.672;2023-08-31T07:52:14;153993.00;;;19.93;100.00
61908;BME280;47864;52.526;19.672;2023-08-31T07:54:22;154147.00;;;20.54;100.00
61908;BME280;47864;52.526;19.672;2023-08-31T07:56:23;154106.28;;;20.38;100.00
61908;BME280;47864;52.526;19.672;2023-08-31T07:58:26;154040.03;;;20.11;100.00
61908;BME280;47864;52.526;19.672;2023-08-31T08:00:27;154019.69;;;20.03;100.00
61908;BME280;47864;52.526;19.672;2023-08-31T08:02:29;154014.59;;;20.01;100.00
61908;BME280;47864;52.526;19.672;2023-08-31T08:04:33;154040.03;;;20.11;100.00
61908;BME280;47864;52.526;19.672;2023-08-31T08:06:35;154057.84;;;20.19;100.00
61908;BME280;47864;52.526;19.672;2023-08-31T08:08:36;154012.06;;;20.00;100.00
61908;BME280;47864;52.526;19.672;2023-08-31T08:10:38;154032.44;;;20.08;100.00
61908;BME280;47864;52.526;19.672;2023-08-31T08:12:41;154080.75;;;20.28;99.56
61908;BME280;47864;52.526;19.672;2023-08-31T08:14:42;154082.03;;;20.28;100.00
61908;BME280;47864;52.526;19.672;2023-08-31T08:16:44;154101.16;;;20.36;98.11
61908;BME280;47864;52.526;19.672;2023-08-31T08:18:45;154066.78;;;20.22;100.00
61908;BME280;47864;52.526;19.672;2023-08-31T08:20:50;154085.88;;;20.30;100.00
61908;BME280;47864;52.526;19.672;2023-08-31T08:22:52;154176.31;;;20.66;98.00
61908;BME280;47864;52.526;19.672;2023-08-31T08:24:54;154220.84;;;20.83;100.00
61908;BME280;47864;52.526;19.672;2023-08-31T08:26:55;154253.94;;;20.97;97.61
61908;BME280;47864;52.526;19.672;2023-08-31T08:28:57;154251.38;;;20.96;98.84
61908;BME280;47864;52.526;19.672;2023-08-31T08:31:02;154283.25;;;21.08;97.21
61908;BME280;47864;52.526;19.672;2023-08-31T08:33:04;154322.75;;;21.24;97.54
61908;BME280;47864;52.526;19.672;2023-08-31T08:35:06;154318.94;;;21.22;98.97
61908;BME280;47864;52.526;19.672;2023-08-31T08:37:07;154236.13;;;20.89;97.09
61908;BME280;47864;52.526;19.672;2023-08-31T08:39:09;154236.13;;;20.89;100.00
61908;BME280;47864;52.526;19.672;2023-08-31T08:41:10;154245.00;;;20.93;100.00
61908;BME280;47864;52.526;19.672;2023-08-31T08:43:13;154303.63;;;21.16;98.77
61908;BME280;47864;52.526;19.672;2023-08-31T08:45:15;154317.66;;;21.22;99.14
61908;BME280;47864;52.526;19.672;2023-08-31T08:47:17;154371.13;;;21.43;95.02
61908;BME280;47864;52.526;19.672;2023-08-31T08:49:19;154501.06;;;21.95;94.88
61908;BME280;47864;52.526;19.672;2023-08-31T08:51:22;154478.13;;;21.86;93.65
61908;BME280;47864;52.526;19.672;2023-08-31T08:53:24;154362.25;;;21.40;90.08
61908;BME280;47864;52.526;19.672;2023-08-31T08:55:25;154313.81;;;21.20;93.74
61908;BME280;47864;52.526;19.672;2023-08-31T08:57:27;154274.31;;;21.05;92.25
61908;BME280;47864;52.526;19.672;2023-08-31T08:59:30;154225.91;;;20.85;97.10
61908;BME280;47864;52.526;19.672;2023-08-31T09:01:35;154208.09;;;20.78;96.16
61908;BME280;47864;52.526;19.672;2023-08-31T09:03:36;154227.19;;;20.86;96.84
61908;BME280;47864;52.526;19.672;2023-08-31T09:05:40;154299.78;;;21.15;97.47
61908;BME280;47864;52.526;19.672;2023-08-31T09:08:08;154281.97;;;21.08;93.21
61908;BME280;47864;52.526;19.672;2023-08-31T09:10:10;154186.47;;;20.70;94.71
61908;BME280;47864;52.526;19.672;2023-08-31T09:12:12;154231.03;;;20.87;98.62
61908;BME280;47864;52.526;19.672;2023-08-31T09:14:17;154311.28;;;21.19;94.98
61908;BME280;47864;52.526;19.672;2023-08-31T09:16:29;154383.88;;;21.48;96.06
61908;BME280;47864;52.526;19.672;2023-08-31T09:18:31;154460.31;;;21.79;95.90
61908;BME280;47864;52.526;19.672;2023-08-31T09:20:46;154643.81;;;22.52;94.24
61908;BME280;47864;52.526;19.672;2023-08-31T09:22:48;154757.34;;;22.97;91.18
61908;BME280;47864;52.526;19.672;2023-08-31T09:24:50;154786.63;;;23.08;84.23
61908;BME280;47864;52.526;19.672;2023-08-31T09:26:56;154678.22;;;22.65;83.17
61908;BME280;47864;52.526;19.672;2023-08-31T09:28:58;154717.81;;;22.81;89.71
61908;BME280;47864;52.526;19.672;2023-08-31T09:31:07;154966.50;;;23.80;85.54
61908;BME280;47864;52.526;19.672;2023-08-31T09:33:12;155027.72;;;24.04;77.48
61908;BME280;47864;52.526;19.672;2023-08-31T09:35:15;155020.06;;;24.01;76.91
61908;BME280;47864;52.526;19.672;2023-08-31T09:37:23;154948.59;;;23.73;75.96
61908;BME280;47864;52.526;19.672;2023-08-31T09:39:24;154970.28;;;23.81;79.69
61908;BME280;47864;52.526;19.672;2023-08-31T09:41:52;155080.06;;;24.25;76.31
61908;BME280;47864;52.526;19.672;2023-08-31T09:43:54;154932.03;;;23.66;75.39
61908;BME280;47864;52.526;19.672;2023-08-31T09:45:55;154874.59;;;23.43;77.72
61908;BME280;47864;52.526;19.672;2023-08-31T09:48:02;154814.69;;;23.20;75.59
61908;BME280;47864;52.526;19.672;2023-08-31T09:50:05;154912.91;;;23.59;76.72
61908;BME280;47864;52.526;19.672;2023-08-31T09:52:07;154929.47;;;23.65;74.67
61908;BME280;47864;52.526;19.672;2023-08-31T09:54:09;154789.19;;;23.09;74.67
61908;BME280;47864;52.526;19.672;2023-08-31T09:56:18;154682.03;;;22.67;75.63
61908;BME280;47864;52.526;19.672;2023-08-31T09:58:21;154679.50;;;22.66;78.53
61908;BME280;47864;52.526;19.672;2023-08-31T10:00:28;154794.28;;;23.11;77.20
61908;BME280;47864;52.526;19.672;2023-08-31T10:02:30;154860.59;;;23.38;75.04
61908;BME280;47864;52.526;19.672;2023-08-31T10:04:34;154977.97;;;23.84;75.70
61908;BME280;47864;52.526;19.672;2023-08-31T10:06:35;154991.97;;;23.90;75.89
61908;BME280;47864;52.526;19.672;2023-08-31T10:08:40;154829.97;;;23.26;75.56
61908;BME280;47864;52.526;19.672;2023-08-31T10:10:42;154758.59;;;22.97;74.15
61908;BME280;47864;52.526;19.672;2023-08-31T10:12:45;154730.53;;;22.86;76.30
61908;BME280;47864;52.526;19.672;2023-08-31T10:14:49;154766.22;;;23.00;77.94
61908;BME280;47864;52.526;19.672;2023-08-31T10:16:51;154856.75;;;23.36;75.53
61908;BME280;47864;52.526;19.672;2023-08-31T10:18:55;154815.97;;;23.20;73.92
61908;BME280;47864;52.526;19.672;2023-08-31T10:20:57;154955.00;;;23.75;75.83
61908;BME280;47864;52.526;19.672;2023-08-31T10:23:03;155034.06;;;24.07;74.17
61908;BME280;47864;52.526;19.672;2023-08-31T10:25:06;154984.34;;;23.87;74.30
61908;BME280;47864;52.526;19.672;2023-08-31T10:27:18;154957.56;;;23.76;76.01
61908;BME280;47864;52.526;19.672;2023-08-31T10:29:27;154901.44;;;23.54;74.32
61908;BME280;47864;52.526;19.672;2023-08-31T10:31:30;154860.59;;;23.38;74.00